createdAt,value
2019-01-02T00:00:34.701Z,102231.38
2019-01-02T00:03:01.984Z,102238.34
2019-01-02T00:05:29.475Z,102254.47
2019-01-02T00:07:56.665Z,102254.47
2019-01-02T00:10:24.128Z,102255.77
2019-01-02T00:12:51.333Z,102252.75
2019-01-02T00:15:18.976Z,102262.77
2019-01-02T00:17:46.279Z,102266.27
2019-01-02T00:20:14.103Z,102272.77
2019-01-02T00:22:41.285Z,102272.77
2019-01-02T00:25:08.787Z,102270.62
2019-01-02T00:27:36.052Z,102274.98
2019-01-02T00:30:03.474Z,102274.98
2019-01-02T00:32:30.735Z,102293.77
2019-01-02T00:34:57.945Z,102294.63
2019-01-02T00:37:25.167Z,102304.63
2019-01-02T00:39:52.404Z,102305.04
2019-01-02T00:42:19.622Z,102318.55
2019-01-02T00:44:46.805Z,102316.81
2019-01-02T00:47:14.033Z,102310.70
2019-01-02T00:49:41.270Z,102310.70
2019-01-02T00:52:08.765Z,102318.59
2019-01-02T00:54:35.973Z,102324.67
2019-01-02T00:57:03.165Z,102334.30
2019-01-02T00:59:30.385Z,102337.36
2019-01-02T01:01:58.543Z,102337.36
2019-01-02T01:04:25.770Z,102344.77
2019-01-02T01:06:52.971Z,102346.52
2019-01-02T01:09:20.593Z,102353.04
2019-01-02T01:11:47.791Z,102357.40
2019-01-02T01:14:15.192Z,102360.89
2019-01-02T01:16:42.423Z,102362.22
2019-01-02T01:19:09.914Z,102361.78
2019-01-02T01:21:37.155Z,102364.41
2019-01-02T01:24:04.757Z,102366.16
2019-01-02T01:26:32.007Z,102387.95
2019-01-02T01:28:59.284Z,102388.81
2019-01-02T01:31:26.799Z,102384.44
2019-01-02T01:33:54.051Z,102393.16
2019-01-02T01:36:40.899Z,102417.16
2019-01-02T01:39:10.009Z,102422.84
2019-01-02T01:41:37.261Z,102422.84
2019-01-02T01:44:45.194Z,102424.14
2019-01-02T01:47:12.640Z,102428.06
2019-01-02T01:49:59.246Z,102430.66
2019-01-02T01:52:26.488Z,102430.66
2019-01-02T01:54:55.610Z,102438.95
2019-01-02T01:57:22.832Z,102441.13
2019-01-02T01:59:50.105Z,102446.82
2019-01-02T02:02:19.224Z,102446.82
2019-01-02T02:04:46.473Z,102455.11
2019-01-02T02:07:13.680Z,102455.11
2019-01-02T02:10:00.332Z,102451.16
2019-01-02T02:12:27.523Z,102451.16
2019-01-02T02:14:54.734Z,102460.36
2019-01-02T02:17:21.971Z,102463.86
2019-01-02T02:19:49.271Z,102474.31
2019-01-02T02:22:16.726Z,102479.11
2019-01-02T02:24:43.945Z,102479.11
2019-01-02T02:27:13.153Z,102475.19
2019-01-02T02:29:40.363Z,102484.33
2019-01-02T02:32:07.621Z,102474.71
2019-01-02T02:34:34.831Z,102479.09
2019-01-02T02:37:02.074Z,102485.18
2019-01-02T02:39:29.336Z,102486.09
2019-01-02T02:42:16.308Z,102468.95
2019-01-02T02:44:45.440Z,102468.95
2019-01-02T02:47:32.109Z,102487.79
2019-01-02T02:50:01.200Z,102487.79
2019-01-02T02:52:47.881Z,102505.23
2019-01-02T02:55:34.647Z,102507.42
2019-01-02T02:58:21.642Z,102506.56
2019-01-02T03:00:49.356Z,102506.56
2019-01-02T03:03:16.886Z,102510.49
2019-01-02T03:05:44.108Z,102508.31
2019-01-02T03:08:11.316Z,102514.44
2019-01-02T03:10:58.261Z,102509.16
2019-01-02T03:13:25.681Z,102518.73
2019-01-02T03:15:53.236Z,102518.73
2019-01-02T03:18:41.765Z,102529.22
2019-01-02T03:21:28.386Z,102530.12
2019-01-02T03:24:16.909Z,102536.63
2019-01-02T03:26:44.076Z,102536.63
2019-01-02T03:29:30.784Z,102534.90
2019-01-02T03:31:58.215Z,102534.90
2019-01-02T03:34:46.890Z,102541.45
2019-01-02T03:37:14.078Z,102541.45
2019-01-02T03:39:41.294Z,102534.89
2019-01-02T03:42:27.974Z,102551.06
2019-01-02T03:44:55.300Z,102551.06
2019-01-02T03:47:42.062Z,102554.06
2019-01-02T03:50:11.855Z,102554.06
2019-01-02T03:52:39.057Z,102551.90
2019-01-02T03:55:25.729Z,102561.06
2019-01-02T03:58:12.350Z,102558.86
2019-01-02T04:00:59.051Z,102564.98
2019-01-02T04:03:26.242Z,102564.98
2019-01-02T04:05:53.493Z,102571.06
2019-01-02T04:08:20.764Z,102566.67
2019-01-02T04:10:47.968Z,102568.80
2019-01-02T04:13:34.636Z,102577.09
2019-01-02T04:16:21.280Z,102572.64
2019-01-02T04:18:48.495Z,102572.64
2019-01-02T04:21:15.723Z,102589.73
2019-01-02T04:23:42.945Z,102586.61
2019-01-02T04:26:29.607Z,102602.77
2019-01-02T04:29:16.390Z,102602.39
2019-01-02T04:31:55.971Z,102608.52
2019-01-02T04:34:23.267Z,102608.52
2019-01-02T04:36:50.462Z,102616.00
2019-01-02T04:39:37.179Z,102617.80
2019-01-02T04:42:23.779Z,102622.16
2019-01-02T04:44:51.100Z,102624.35
2019-01-02T04:47:18.316Z,102624.35
2019-01-02T04:49:45.568Z,102623.03
2019-01-02T04:52:32.272Z,102635.76
2019-01-02T04:55:18.927Z,102638.84
2019-01-02T04:57:46.268Z,102638.84
2019-01-02T05:00:15.476Z,102644.91
2019-01-02T05:02:42.676Z,102648.01
2019-01-02T05:05:29.382Z,102648.83
2019-01-02T05:08:16.016Z,102658.04
2019-01-02T05:11:02.742Z,102665.05
2019-01-02T05:13:29.953Z,102665.05
2019-01-02T05:16:16.797Z,102668.95
2019-01-02T05:18:43.998Z,102668.95
2019-01-02T05:21:11.217Z,102669.38
2019-01-02T05:23:38.452Z,102669.38
2019-01-02T05:26:05.686Z,102679.87
2019-01-02T05:28:52.334Z,102690.76
2019-01-02T05:31:31.874Z,102702.53
2019-01-02T05:34:11.290Z,102707.38
2019-01-02T05:36:51.299Z,102707.36
2019-01-02T05:39:18.662Z,102707.36
2019-01-02T05:41:45.864Z,102716.06
2019-01-02T05:44:13.137Z,102716.06
2019-01-02T05:46:40.411Z,102729.20
2019-01-02T05:49:07.630Z,102728.78
2019-01-02T05:51:34.840Z,102746.70
2019-01-02T05:54:02.073Z,102737.52
2019-01-02T05:56:29.310Z,102750.19
2019-01-02T05:58:56.544Z,102752.81
2019-01-02T06:01:23.822Z,102762.00
2019-01-02T06:04:10.582Z,102774.56
2019-01-02T06:06:57.210Z,102782.83
2019-01-02T06:09:24.555Z,102782.83
2019-01-02T06:11:51.771Z,102788.56
2019-01-02T06:14:19.015Z,102788.56
2019-01-02T06:16:46.281Z,102798.17
2019-01-02T06:19:32.880Z,102790.66
2019-01-02T06:22:00.252Z,102790.66
2019-01-02T06:24:27.487Z,102807.78
2019-01-02T06:26:54.649Z,102798.98
2019-01-02T06:29:21.903Z,102813.39
2019-01-02T06:31:49.352Z,102825.19
2019-01-02T06:34:16.651Z,102825.19
2019-01-02T06:37:03.252Z,102836.94
2019-01-02T06:39:50.052Z,102843.87
2019-01-02T06:42:17.249Z,102843.87
2019-01-02T06:44:44.450Z,102854.38
2019-01-02T06:47:11.750Z,102854.38
2019-01-02T06:49:38.928Z,102853.48
2019-01-02T06:52:25.610Z,102864.40
2019-01-02T06:54:52.842Z,102864.40
2019-01-02T06:57:20.059Z,102869.66
2019-01-02T06:59:47.390Z,102895.36
2019-01-02T07:02:14.585Z,102895.36
2019-01-02T07:05:01.327Z,102901.40
2019-01-02T07:07:31.308Z,102901.40
2019-01-02T07:09:57.685Z,102901.40
2019-01-02T07:12:24.965Z,102903.63
2019-01-02T07:14:52.184Z,102908.42
2019-01-02T07:17:22.222Z,102919.78
2019-01-02T07:19:49.453Z,102921.45
2019-01-02T07:22:16.632Z,102929.30
2019-01-02T07:24:43.825Z,102918.41
2019-01-02T07:27:10.992Z,102928.44
2019-01-02T07:29:38.251Z,102922.34
2019-01-02T07:32:05.445Z,102922.34
2019-01-02T07:35:19.963Z,102943.28
2019-01-02T07:38:25.366Z,102959.81
2019-01-02T07:41:27.720Z,102959.81
2019-01-02T07:44:32.228Z,102974.24
2019-01-02T07:47:36.838Z,102974.24
2019-01-02T07:50:27.695Z,102982.55
2019-01-02T07:53:16.077Z,102997.42
2019-01-02T07:56:34.153Z,103005.63
2019-01-02T07:59:19.530Z,103018.67
2019-01-02T08:02:06.130Z,103011.69
2019-01-02T08:04:59.530Z,103011.69
2019-01-02T08:07:59.935Z,103026.98
2019-01-02T08:11:07.740Z,103034.86
2019-01-02T08:14:28.918Z,103037.89
2019-01-02T08:17:34.148Z,103037.89
2019-01-02T08:20:33.119Z,103047.98
2019-01-02T08:24:00.507Z,103056.76
2019-01-02T08:27:10.608Z,103062.38
2019-01-02T08:30:06.490Z,103067.77
2019-01-02T08:33:12.913Z,103071.25
2019-01-02T08:36:11.084Z,103077.32
2019-01-02T08:39:17.508Z,103080.38
2019-01-02T08:42:08.683Z,103084.31
2019-01-02T08:45:28.509Z,103095.74
2019-01-02T08:48:20.357Z,103097.50
2019-01-02T08:51:17.339Z,103097.91
2019-01-02T08:54:47.475Z,103112.73
2019-01-02T08:58:02.543Z,103112.73
2019-01-02T09:01:13.189Z,103113.93
2019-01-02T09:04:18.747Z,103113.93
2019-01-02T09:07:08.501Z,103120.55
2019-01-02T09:10:05.695Z,103120.09
2019-01-02T09:13:16.780Z,103139.80
2019-01-02T09:16:16.294Z,103144.59
2019-01-02T09:19:08.875Z,103144.59
2019-01-02T09:22:24.037Z,103157.75
2019-01-02T09:25:37.732Z,103157.75
2019-01-02T09:28:38.097Z,103180.94
2019-01-02T09:31:56.036Z,103180.94
2019-01-02T09:35:06.329Z,103179.14
2019-01-02T09:38:12.462Z,103194.98
2019-01-02T09:41:03.118Z,103194.98
2019-01-02T09:43:51.491Z,103206.29
2019-01-02T09:46:38.175Z,103213.77
2019-01-02T09:49:34.209Z,103213.77
2019-01-02T09:52:41.994Z,103217.66
2019-01-02T09:55:40.583Z,103223.94
2019-01-02T09:59:05.216Z,103229.24
2019-01-02T10:02:32.850Z,103229.24
2019-01-02T10:05:24.192Z,103227.91
2019-01-02T10:08:48.515Z,103228.31
2019-01-02T10:12:09.440Z,103224.01
2019-01-02T10:15:16.768Z,103224.01
2019-01-02T10:18:19.095Z,103228.08
2019-01-02T10:21:20.685Z,103230.21
2019-01-02T10:24:56.864Z,103227.63
2019-01-02T10:28:04.679Z,103231.62
2019-01-02T10:31:15.564Z,103250.89
2019-01-02T10:34:15.098Z,103251.34
2019-01-02T10:37:37.693Z,103247.83
2019-01-02T10:40:28.975Z,103257.55
2019-01-02T10:43:36.884Z,103257.55
2019-01-02T10:46:41.118Z,103264.20
2019-01-02T10:50:08.229Z,103267.61
2019-01-02T10:53:13.618Z,103267.61
2019-01-02T10:56:31.235Z,103269.06
2019-01-02T10:59:54.288Z,103288.75
2019-01-02T11:03:02.312Z,103288.78
2019-01-02T11:06:31.147Z,103294.06
2019-01-02T11:09:48.081Z,103299.34
2019-01-02T11:12:44.872Z,103300.58
2019-01-02T11:15:48.911Z,103300.58
2019-01-02T11:19:02.463Z,103301.09
2019-01-02T11:22:14.596Z,103291.44
2019-01-02T11:24:57.999Z,103305.06
2019-01-02T11:28:05.758Z,103299.85
2019-01-02T11:31:09.507Z,103299.85
2019-01-02T11:34:11.191Z,103298.55
2019-01-02T11:37:34.122Z,103296.44
2019-01-02T11:40:46.218Z,103303.41
2019-01-02T11:43:56.993Z,103308.30
2019-01-02T11:46:24.164Z,103312.23
2019-01-02T11:48:51.359Z,103306.96
2019-01-02T11:51:18.634Z,103308.23
2019-01-02T11:53:45.954Z,103313.13
2019-01-02T11:56:13.189Z,103311.85
2019-01-02T11:58:40.465Z,103301.64
2019-01-02T12:01:07.713Z,103308.27
2019-01-02T12:03:34.938Z,103310.44
2019-01-02T12:06:02.186Z,103304.75
2019-01-02T12:08:29.444Z,103310.44
2019-01-02T12:10:56.694Z,103316.09
2019-01-02T12:13:24.055Z,103316.09
2019-01-02T12:15:51.271Z,103312.58
2019-01-02T12:18:18.715Z,103324.86
2019-01-02T12:20:45.917Z,103321.37
2019-01-02T12:23:13.107Z,103321.37
2019-01-02T12:25:40.408Z,103323.92
2019-01-02T12:28:07.593Z,103326.16
2019-01-02T12:30:34.818Z,103328.41
2019-01-02T12:33:02.082Z,103330.62
2019-01-02T12:35:29.312Z,103326.38
2019-01-02T12:37:56.548Z,103329.89
2019-01-02T12:40:23.799Z,103329.89
2019-01-02T12:42:51.043Z,103338.69
2019-01-02T12:45:18.273Z,103335.27
2019-01-02T12:47:47.233Z,103341.86
2019-01-02T12:50:14.468Z,103341.92
2019-01-02T12:52:41.641Z,103340.65
2019-01-02T12:55:08.972Z,103343.75
2019-01-02T12:57:36.214Z,103349.03
2019-01-02T13:00:05.979Z,103356.10
2019-01-02T13:02:55.881Z,103354.83
2019-01-02T13:06:07.052Z,103368.42
2019-01-02T13:09:30.142Z,103364.58
2019-01-02T13:12:37.805Z,103362.09
2019-01-02T13:15:35.209Z,103373.99
2019-01-02T13:18:33.737Z,103374.12
2019-01-02T13:21:14.125Z,103378.47
2019-01-02T13:23:50.987Z,103384.27
2019-01-02T13:26:22.666Z,103383.05
2019-01-02T13:29:43.083Z,103383.08
2019-01-02T13:32:55.993Z,103388.00
2019-01-02T13:36:26.052Z,103383.71
2019-01-02T13:39:24.491Z,103388.19
2019-01-02T13:42:21.120Z,103390.45
2019-01-02T13:45:19.582Z,103400.56
2019-01-02T13:48:03.844Z,103403.28
2019-01-02T13:50:42.260Z,103405.58
2019-01-02T13:53:10.245Z,103412.59
2019-01-02T13:55:37.487Z,103413.88
2019-01-02T13:58:04.745Z,103405.91
2019-01-02T14:00:31.983Z,103416.80
2019-01-02T14:02:59.250Z,103411.58
2019-01-02T14:05:26.520Z,103416.41
2019-01-02T14:07:53.720Z,103412.47
2019-01-02T14:10:21.139Z,103415.06
2019-01-02T14:12:48.367Z,103422.52
2019-01-02T14:15:15.571Z,103431.32
2019-01-02T14:17:42.823Z,103433.53
2019-01-02T14:20:10.041Z,103430.45
2019-01-02T14:22:37.257Z,103432.57
2019-01-02T14:25:04.549Z,103430.81
2019-01-02T14:27:31.951Z,103435.58
2019-01-02T14:29:59.179Z,103438.62
2019-01-02T14:32:26.418Z,103433.31
2019-01-02T14:34:53.758Z,103439.05
2019-01-02T14:37:20.999Z,103439.36
2019-01-02T14:39:48.224Z,103444.97
2019-01-02T14:42:15.491Z,103450.19
2019-01-02T14:44:42.672Z,103452.67
2019-01-02T14:47:09.865Z,103451.71
2019-01-02T14:49:37.132Z,103452.95
2019-01-02T14:52:04.379Z,103452.92
2019-01-02T14:54:31.593Z,103451.06
2019-01-02T14:57:00.124Z,103457.17
2019-01-02T14:59:27.498Z,103453.20
2019-01-02T15:01:54.680Z,103454.89
2019-01-02T15:04:21.944Z,103458.80
2019-01-02T15:06:49.158Z,103457.41
2019-01-02T15:09:16.368Z,103454.20
2019-01-02T15:11:43.645Z,103457.23
2019-01-02T15:14:10.836Z,103454.95
2019-01-02T15:16:38.056Z,103462.75
2019-01-02T15:19:05.307Z,103463.09
2019-01-02T15:21:32.513Z,103468.75
2019-01-02T15:23:59.831Z,103465.16
2019-01-02T15:26:27.054Z,103471.63
2019-01-02T15:28:54.322Z,103468.94
2019-01-02T15:31:21.576Z,103478.11
2019-01-02T15:33:48.791Z,103466.61
2019-01-02T15:36:16.026Z,103475.79
2019-01-02T15:38:43.293Z,103477.39
2019-01-02T15:41:10.502Z,103483.45
2019-01-02T15:43:37.710Z,103483.91
2019-01-02T15:46:05.020Z,103482.52
2019-01-02T15:48:32.266Z,103482.92
2019-01-02T15:50:59.473Z,103482.88
2019-01-02T15:53:26.776Z,103490.25
2019-01-02T15:55:54.021Z,103484.08
2019-01-02T15:58:21.281Z,103487.55
2019-01-02T16:00:48.500Z,103484.53
2019-01-02T16:03:15.744Z,103492.39
2019-01-02T16:05:43.086Z,103496.36
2019-01-02T16:08:10.285Z,103499.76
2019-01-02T16:10:37.499Z,103493.25
2019-01-02T16:13:04.712Z,103501.15
2019-01-02T16:15:32.040Z,103501.52
2019-01-02T16:17:59.281Z,103511.55
2019-01-02T16:20:26.533Z,103509.83
2019-01-02T16:22:53.887Z,103512.81
2019-01-02T16:25:21.097Z,103511.47
2019-01-02T16:27:48.346Z,103513.63
2019-01-02T16:30:15.714Z,103518.92
2019-01-02T16:32:42.961Z,103522.40
2019-01-02T16:35:10.174Z,103523.25
2019-01-02T16:37:37.459Z,103533.28
2019-01-02T16:40:07.067Z,103533.61
2019-01-02T16:42:34.333Z,103529.27
2019-01-02T16:45:01.714Z,103533.08
2019-01-02T16:47:28.904Z,103533.08
2019-01-02T16:49:56.105Z,103534.39
2019-01-02T16:52:23.447Z,103528.57
2019-01-02T16:54:50.686Z,103531.73
2019-01-02T16:57:17.894Z,103542.20
2019-01-02T16:59:45.144Z,103532.98
2019-01-02T17:02:12.509Z,103530.37
2019-01-02T17:04:39.741Z,103538.68
2019-01-02T17:07:06.923Z,103538.68
2019-01-02T17:09:34.279Z,103533.80
2019-01-02T17:12:01.527Z,103533.80
2019-01-02T17:14:28.729Z,103541.67
2019-01-02T17:16:55.956Z,103541.67
2019-01-02T17:19:23.181Z,103537.73
2019-01-02T17:21:50.392Z,103534.66
2019-01-02T17:24:17.616Z,103536.88
2019-01-02T17:26:44.885Z,103531.51
2019-01-02T17:29:12.109Z,103531.51
2019-01-02T17:31:39.341Z,103532.45
2019-01-02T17:34:06.609Z,103532.45
2019-01-02T17:36:33.944Z,103543.80
2019-01-02T17:39:01.167Z,103536.30
2019-01-02T17:41:28.380Z,103536.30
2019-01-02T17:43:55.749Z,103543.34
2019-01-02T17:46:22.948Z,103544.64
2019-01-02T17:48:50.174Z,103542.07
2019-01-02T17:51:17.468Z,103542.03
2019-01-02T17:53:44.699Z,103538.01
2019-01-02T17:56:11.903Z,103547.23
2019-01-02T17:58:39.171Z,103548.89
2019-01-02T18:01:06.470Z,103548.00
2019-01-02T18:03:33.687Z,103548.00
2019-01-02T18:06:00.972Z,103541.89
2019-01-02T18:08:28.196Z,103541.89
2019-01-02T18:10:55.410Z,103545.78
2019-01-02T18:13:22.684Z,103538.83
2019-01-02T18:15:49.949Z,103544.87
2019-01-02T18:18:17.165Z,103544.87
2019-01-02T18:20:44.420Z,103538.23
2019-01-02T18:23:11.619Z,103538.23
2019-01-02T18:25:38.894Z,103535.53
2019-01-02T18:28:06.096Z,103541.27
2019-01-02T18:30:33.328Z,103546.46
2019-01-02T18:33:00.597Z,103535.91
2019-01-02T18:35:27.937Z,103535.91
2019-01-02T18:37:55.190Z,103544.74
2019-01-02T18:40:22.414Z,103544.74
2019-01-02T18:42:49.670Z,103562.66
2019-01-02T18:45:16.866Z,103558.61
2019-01-02T18:47:44.170Z,103558.61
2019-01-02T18:50:11.392Z,103567.50
2019-01-02T18:52:38.639Z,103560.50
2019-01-02T18:55:05.911Z,103565.37
2019-01-02T18:57:33.158Z,103566.59
2019-01-02T19:00:05.999Z,103566.59
2019-01-02T19:02:29.536Z,103563.12
2019-01-02T19:04:56.801Z,103564.84
2019-01-02T19:07:24.022Z,103564.84
2019-01-02T19:09:51.254Z,103570.16
2019-01-02T19:12:18.521Z,103570.16
2019-01-02T19:14:45.885Z,103563.97
2019-01-02T19:17:13.096Z,103568.81
2019-01-02T19:19:40.345Z,103568.81
2019-01-02T19:22:07.579Z,103567.91
2019-01-02T19:24:34.834Z,103558.73
2019-01-02T19:27:02.133Z,103571.43
2019-01-02T19:29:29.377Z,103571.43
2019-01-02T19:31:56.581Z,103579.69
2019-01-02T19:34:23.807Z,103579.69
2019-01-02T19:36:51.020Z,103582.31
2019-01-02T19:39:18.265Z,103582.31
2019-01-02T19:41:45.500Z,103576.95
2019-01-02T19:44:12.723Z,103582.31
2019-01-02T19:46:39.936Z,103582.31
2019-01-02T19:49:07.178Z,103581.86
2019-01-02T19:51:34.401Z,103586.64
2019-01-02T19:54:01.786Z,103592.78
2019-01-02T19:56:28.995Z,103595.86
2019-01-02T19:58:56.211Z,103597.08
2019-01-02T20:01:23.436Z,103602.69
2019-01-02T20:03:50.610Z,103602.69
2019-01-02T20:06:17.851Z,103603.50
2019-01-02T20:08:45.073Z,103591.22
2019-01-02T20:11:12.308Z,103601.78
2019-01-02T20:13:39.505Z,103607.20
2019-01-02T20:16:06.780Z,103601.05
2019-01-02T20:18:33.975Z,103601.46
2019-01-02T20:21:01.205Z,103589.58
2019-01-02T20:23:28.411Z,103593.97
2019-01-02T20:25:55.688Z,103593.97
2019-01-02T20:28:22.909Z,103597.08
2019-01-02T20:30:50.120Z,103597.08
2019-01-02T20:33:17.314Z,103591.12
2019-01-02T20:35:44.503Z,103590.72
2019-01-02T20:38:11.821Z,103598.52
2019-01-02T20:40:39.065Z,103598.52
2019-01-02T20:43:06.266Z,103592.73
2019-01-02T20:45:33.517Z,103574.77
2019-01-02T20:48:00.867Z,103574.77
2019-01-02T20:50:28.083Z,103586.19
2019-01-02T20:52:55.258Z,103582.58
2019-01-02T20:55:22.470Z,103582.58
2019-01-02T20:57:49.703Z,103583.84
2019-01-02T21:00:16.955Z,103582.26
2019-01-02T21:02:44.196Z,103575.27
2019-01-02T21:05:11.480Z,103573.64
2019-01-02T21:07:38.672Z,103573.64
2019-01-02T21:10:07.406Z,103567.86
2019-01-02T21:12:34.677Z,103566.96
2019-01-02T21:15:01.892Z,103567.38
2019-01-02T21:17:29.122Z,103570.39
2019-01-02T21:19:56.306Z,103570.39
2019-01-02T21:22:23.595Z,103566.46
2019-01-02T21:24:50.799Z,103576.94
2019-01-02T21:27:18.035Z,103575.58
2019-01-02T21:29:45.223Z,103572.05
2019-01-02T21:32:12.576Z,103564.20
2019-01-02T21:34:39.802Z,103558.47
2019-01-02T21:37:07.010Z,103566.00
2019-01-02T21:39:34.308Z,103562.84
2019-01-02T21:42:01.649Z,103560.09
2019-01-02T21:44:28.857Z,103554.50
2019-01-02T21:46:56.148Z,103553.23
2019-01-02T21:49:23.348Z,103558.42
2019-01-02T21:51:50.570Z,103557.61
2019-01-02T21:54:17.786Z,103549.75
2019-01-02T21:56:45.006Z,103555.35
2019-01-02T21:59:12.200Z,103548.40
2019-01-02T22:01:39.494Z,103549.66
2019-01-02T22:04:06.697Z,103547.09
2019-01-02T22:06:33.943Z,103543.58
2019-01-02T22:09:01.141Z,103533.82
2019-01-02T22:11:28.390Z,103532.02
2019-01-02T22:13:55.598Z,103530.34
2019-01-02T22:16:22.930Z,103528.94
2019-01-02T22:18:50.177Z,103517.12
2019-01-02T22:21:17.389Z,103519.41
2019-01-02T22:23:44.627Z,103521.17
2019-01-02T22:26:11.869Z,103519.38
2019-01-02T22:28:39.096Z,103519.23
2019-01-02T22:31:06.333Z,103519.23
2019-01-02T22:33:33.559Z,103529.25
2019-01-02T22:36:00.800Z,103533.08
2019-01-02T22:38:28.036Z,103541.42
2019-01-02T22:40:55.230Z,103542.29
2019-01-02T22:43:22.469Z,103550.19
2019-01-02T22:45:49.687Z,103545.85
2019-01-02T22:48:16.962Z,103557.69
2019-01-02T22:50:44.223Z,103559.80
2019-01-02T22:53:11.438Z,103559.80
2019-01-02T22:55:38.683Z,103559.80
2019-01-02T22:58:05.868Z,103568.51
2019-01-02T23:00:55.320Z,103568.41
2019-01-02T23:03:44.740Z,103574.55
2019-01-02T23:06:29.921Z,103571.03
2019-01-02T23:09:16.679Z,103574.95
2019-01-02T23:12:02.229Z,103578.06
2019-01-02T23:14:52.149Z,103578.06
2019-01-02T23:17:32.690Z,103563.67
2019-01-02T23:20:28.182Z,103569.42
2019-01-02T23:23:18.148Z,103559.66
2019-01-02T23:26:17.233Z,103566.28
2019-01-02T23:29:02.835Z,103567.11
2019-01-02T23:31:48.474Z,103563.98
2019-01-02T23:34:34.181Z,103566.50
2019-01-02T23:37:20.962Z,103576.56
2019-01-02T23:40:07.756Z,103566.91
2019-01-02T23:42:54.565Z,103566.91
2019-01-02T23:45:39.851Z,103572.55
2019-01-02T23:48:19.889Z,103570.83
2019-01-02T23:51:05.342Z,103566.55
2019-01-02T23:53:51.126Z,103566.55
2019-01-02T23:56:36.740Z,103562.17
2019-01-02T23:59:35.625Z,103562.17
